sensor_id;sensor_type;location;lat;lon;timestamp;P1;durP1;ratioP1;P2;durP2;ratioP2
49392;SDS011;35268;42.642;23.308;2023-02-16T00:02:07;72.45;;;29.90;;
49392;SDS011;35268;42.642;23.308;2023-02-16T00:04:33;66.32;;;28.58;;
49392;SDS011;35268;42.642;23.308;2023-02-16T00:06:59;61.20;;;28.65;;
49392;SDS011;35268;42.642;23.308;2023-02-16T00:09:24;70.38;;;28.58;;
49392;SDS011;35268;42.642;23.308;2023-02-16T00:11:50;69.18;;;29.73;;
49392;SDS011;35268;42.642;23.308;2023-02-16T00:14:36;65.82;;;29.40;;
49392;SDS011;35268;42.642;23.308;2023-02-16T00:17:03;63.45;;;28.48;;
49392;SDS011;35268;42.642;23.308;2023-02-16T00:21:58;63.53;;;29.45;;
49392;SDS011;35268;42.642;23.308;2023-02-16T00:24:24;66.03;;;29.88;;
49392;SDS011;35268;42.642;23.308;2023-02-16T00:26:51;66.80;;;29.98;;
49392;SDS011;35268;42.642;23.308;2023-02-16T00:29:22;64.50;;;28.48;;
49392;SDS011;35268;42.642;23.308;2023-02-16T00:31:59;60.60;;;27.10;;
49392;SDS011;35268;42.642;23.308;2023-02-16T00:34:28;69.38;;;28.33;;
49392;SDS011;35268;42.642;23.308;2023-02-16T00:36:57;58.33;;;27.00;;
49392;SDS011;35268;42.642;23.308;2023-02-16T00:39:25;66.03;;;29.15;;
49392;SDS011;35268;42.642;23.308;2023-02-16T00:41:52;75.43;;;28.35;;
49392;SDS011;35268;42.642;23.308;2023-02-16T00:44:20;67.68;;;28.92;;
49392;SDS011;35268;42.642;23.308;2023-02-16T00:46:51;60.85;;;25.38;;
49392;SDS011;35268;42.642;23.308;2023-02-16T00:49:18;59.20;;;25.58;;
49392;SDS011;35268;42.642;23.308;2023-02-16T00:51:45;54.83;;;24.50;;
49392;SDS011;35268;42.642;23.308;2023-02-16T00:54:11;62.15;;;25.73;;
49392;SDS011;35268;42.642;23.308;2023-02-16T00:56:37;53.85;;;24.40;;
49392;SDS011;35268;42.642;23.308;2023-02-16T00:59:04;48.13;;;22.25;;
49392;SDS011;35268;42.642;23.308;2023-02-16T01:01:35;57.95;;;24.63;;
49392;SDS011;35268;42.642;23.308;2023-02-16T01:04:01;53.75;;;22.50;;
49392;SDS011;35268;42.642;23.308;2023-02-16T01:06:28;50.00;;;19.85;;
49392;SDS011;35268;42.642;23.308;2023-02-16T01:09:13;46.00;;;20.17;;
49392;SDS011;35268;42.642;23.308;2023-02-16T01:11:59;49.10;;;19.75;;
49392;SDS011;35268;42.642;23.308;2023-02-16T01:14:26;45.25;;;18.67;;
49392;SDS011;35268;42.642;23.308;2023-02-16T01:16:53;41.40;;;16.63;;
49392;SDS011;35268;42.642;23.308;2023-02-16T01:19:18;41.65;;;16.73;;
49392;SDS011;35268;42.642;23.308;2023-02-16T01:21:44;41.25;;;18.83;;
49392;SDS011;35268;42.642;23.308;2023-02-16T01:24:09;43.85;;;19.38;;
49392;SDS011;35268;42.642;23.308;2023-02-16T01:26:38;42.90;;;17.38;;
49392;SDS011;35268;42.642;23.308;2023-02-16T01:29:06;43.17;;;19.38;;
49392;SDS011;35268;42.642;23.308;2023-02-16T01:31:37;39.03;;;18.60;;
49392;SDS011;35268;42.642;23.308;2023-02-16T01:34:02;40.13;;;18.20;;
49392;SDS011;35268;42.642;23.308;2023-02-16T01:36:32;41.33;;;17.88;;
49392;SDS011;35268;42.642;23.308;2023-02-16T01:39:00;45.85;;;17.65;;
49392;SDS011;35268;42.642;23.308;2023-02-16T01:47:01;41.92;;;18.38;;
49392;SDS011;35268;42.642;23.308;2023-02-16T01:49:31;50.58;;;20.60;;
49392;SDS011;35268;42.642;23.308;2023-02-16T01:52:11;41.05;;;17.00;;
49392;SDS011;35268;42.642;23.308;2023-02-16T02:00:06;53.38;;;21.63;;
49392;SDS011;35268;42.642;23.308;2023-02-16T02:02:36;52.90;;;22.55;;
49392;SDS011;35268;42.642;23.308;2023-02-16T02:05:06;58.88;;;22.60;;
49392;SDS011;35268;42.642;23.308;2023-02-16T02:13:36;46.13;;;19.58;;
49392;SDS011;35268;42.642;23.308;2023-02-16T02:16:07;44.10;;;19.20;;
49392;SDS011;35268;42.642;23.308;2023-02-16T02:18:34;45.67;;;20.50;;
49392;SDS011;35268;42.642;23.308;2023-02-16T02:27:15;48.60;;;20.83;;
49392;SDS011;35268;42.642;23.308;2023-02-16T02:32:21;52.55;;;23.50;;
49392;SDS011;35268;42.642;23.308;2023-02-16T02:41:22;50.80;;;20.08;;
49392;SDS011;35268;42.642;23.308;2023-02-16T02:44:29;45.00;;;18.80;;
49392;SDS011;35268;42.642;23.308;2023-02-16T02:47:01;46.42;;;20.23;;
49392;SDS011;35268;42.642;23.308;2023-02-16T02:49:27;58.72;;;19.73;;
49392;SDS011;35268;42.642;23.308;2023-02-16T02:51:52;47.67;;;19.83;;
49392;SDS011;35268;42.642;23.308;2023-02-16T02:54:22;49.38;;;18.65;;
49392;SDS011;35268;42.642;23.308;2023-02-16T02:57:18;46.42;;;18.05;;
49392;SDS011;35268;42.642;23.308;2023-02-16T03:05:36;37.28;;;17.13;;
49392;SDS011;35268;42.642;23.308;2023-02-16T03:08:06;42.17;;;18.00;;
49392;SDS011;35268;42.642;23.308;2023-02-16T03:10:50;36.80;;;18.40;;
49392;SDS011;35268;42.642;23.308;2023-02-16T03:13:39;36.67;;;17.10;;
49392;SDS011;35268;42.642;23.308;2023-02-16T03:16:34;40.67;;;17.52;;
49392;SDS011;35268;42.642;23.308;2023-02-16T03:19:35;38.45;;;17.50;;
49392;SDS011;35268;42.642;23.308;2023-02-16T03:22:20;32.85;;;15.77;;
49392;SDS011;35268;42.642;23.308;2023-02-16T03:25:05;37.67;;;18.27;;
49392;SDS011;35268;42.642;23.308;2023-02-16T03:27:48;39.42;;;17.58;;
49392;SDS011;35268;42.642;23.308;2023-02-16T03:30:33;33.20;;;16.52;;
49392;SDS011;35268;42.642;23.308;2023-02-16T03:32:59;32.85;;;15.90;;
49392;SDS011;35268;42.642;23.308;2023-02-16T03:35:25;30.65;;;14.98;;
49392;SDS011;35268;42.642;23.308;2023-02-16T03:37:50;34.80;;;14.98;;
49392;SDS011;35268;42.642;23.308;2023-02-16T03:40:16;32.65;;;14.38;;
49392;SDS011;35268;42.642;23.308;2023-02-16T03:43:03;38.78;;;16.45;;
49392;SDS011;35268;42.642;23.308;2023-02-16T03:45:34;47.35;;;17.73;;
49392;SDS011;35268;42.642;23.308;2023-02-16T03:48:01;46.42;;;19.85;;
49392;SDS011;35268;42.642;23.308;2023-02-16T03:50:27;42.33;;;18.17;;
49392;SDS011;35268;42.642;23.308;2023-02-16T03:52:53;46.03;;;17.70;;
49392;SDS011;35268;42.642;23.308;2023-02-16T03:55:51;36.10;;;16.13;;
49392;SDS011;35268;42.642;23.308;2023-02-16T03:58:18;37.35;;;17.58;;
49392;SDS011;35268;42.642;23.308;2023-02-16T04:00:45;34.90;;;16.60;;
49392;SDS011;35268;42.642;23.308;2023-02-16T04:03:11;34.35;;;15.73;;
49392;SDS011;35268;42.642;23.308;2023-02-16T04:05:37;33.67;;;15.70;;
49392;SDS011;35268;42.642;23.308;2023-02-16T04:08:03;34.28;;;14.93;;
49392;SDS011;35268;42.642;23.308;2023-02-16T04:10:29;32.83;;;14.73;;
49392;SDS011;35268;42.642;23.308;2023-02-16T04:12:54;29.08;;;14.60;;
49392;SDS011;35268;42.642;23.308;2023-02-16T04:15:21;35.95;;;16.00;;
49392;SDS011;35268;42.642;23.308;2023-02-16T04:17:48;33.97;;;16.13;;
49392;SDS011;35268;42.642;23.308;2023-02-16T04:20:16;35.08;;;16.17;;
49392;SDS011;35268;42.642;23.308;2023-02-16T04:22:43;38.20;;;16.30;;
49392;SDS011;35268;42.642;23.308;2023-02-16T04:25:09;36.78;;;16.00;;
49392;SDS011;35268;42.642;23.308;2023-02-16T04:27:35;43.67;;;18.17;;
49392;SDS011;35268;42.642;23.308;2023-02-16T04:30:02;43.45;;;19.58;;
49392;SDS011;35268;42.642;23.308;2023-02-16T04:32:29;45.42;;;18.70;;
49392;SDS011;35268;42.642;23.308;2023-02-16T04:34:54;51.60;;;20.58;;
49392;SDS011;35268;42.642;23.308;2023-02-16T04:37:20;40.08;;;18.88;;
49392;SDS011;35268;42.642;23.308;2023-02-16T04:39:45;50.88;;;23.10;;
49392;SDS011;35268;42.642;23.308;2023-02-16T04:42:11;49.45;;;20.83;;
49392;SDS011;35268;42.642;23.308;2023-02-16T04:44:36;47.10;;;21.25;;
49392;SDS011;35268;42.642;23.308;2023-02-16T04:47:02;42.90;;;18.95;;
49392;SDS011;35268;42.642;23.308;2023-02-16T04:49:27;43.28;;;20.05;;
49392;SDS011;35268;42.642;23.308;2023-02-16T04:51:53;41.85;;;18.90;;
49392;SDS011;35268;42.642;23.308;2023-02-16T04:54:18;49.13;;;21.40;;
49392;SDS011;35268;42.642;23.308;2023-02-16T04:56:44;48.15;;;21.08;;
49392;SDS011;35268;42.642;23.308;2023-02-16T04:59:11;47.10;;;21.27;;
49392;SDS011;35268;42.642;23.308;2023-02-16T05:01:37;51.97;;;23.00;;
49392;SDS011;35268;42.642;23.308;2023-02-16T05:04:02;51.30;;;22.75;;
49392;SDS011;35268;42.642;23.308;2023-02-16T05:06:28;47.80;;;21.65;;
49392;SDS011;35268;42.642;23.308;2023-02-16T05:08:53;50.83;;;23.63;;
49392;SDS011;35268;42.642;23.308;2023-02-16T05:11:19;48.78;;;23.33;;
49392;SDS011;35268;42.642;23.308;2023-02-16T05:14:03;55.83;;;22.98;;
49392;SDS011;35268;42.642;23.308;2023-02-16T05:16:47;48.38;;;21.42;;
49392;SDS011;35268;42.642;23.308;2023-02-16T05:19:12;50.15;;;23.17;;
49392;SDS011;35268;42.642;23.308;2023-02-16T05:21:38;63.22;;;24.42;;
49392;SDS011;35268;42.642;23.308;2023-02-16T05:24:04;59.85;;;25.70;;
49392;SDS011;35268;42.642;23.308;2023-02-16T05:26:32;63.10;;;27.33;;
49392;SDS011;35268;42.642;23.308;2023-02-16T05:28:59;76.10;;;30.77;;
49392;SDS011;35268;42.642;23.308;2023-02-16T05:31:25;68.93;;;29.85;;
49392;SDS011;35268;42.642;23.308;2023-02-16T05:33:51;62.47;;;28.65;;
49392;SDS011;35268;42.642;23.308;2023-02-16T05:36:17;60.60;;;27.45;;
49392;SDS011;35268;42.642;23.308;2023-02-16T05:38:43;67.22;;;27.45;;
49392;SDS011;35268;42.642;23.308;2023-02-16T05:41:08;66.03;;;28.33;;
49392;SDS011;35268;42.642;23.308;2023-02-16T05:43:34;62.63;;;27.45;;
49392;SDS011;35268;42.642;23.308;2023-02-16T05:45:59;62.85;;;25.77;;
49392;SDS011;35268;42.642;23.308;2023-02-16T05:48:30;58.05;;;26.80;;
49392;SDS011;35268;42.642;23.308;2023-02-16T05:50:55;55.22;;;25.00;;
49392;SDS011;35268;42.642;23.308;2023-02-16T05:53:21;66.78;;;26.88;;
49392;SDS011;35268;42.642;23.308;2023-02-16T05:55:46;55.42;;;25.50;;
49392;SDS011;35268;42.642;23.308;2023-02-16T05:58:12;60.38;;;27.10;;
49392;SDS011;35268;42.642;23.308;2023-02-16T06:00:38;65.07;;;27.92;;
49392;SDS011;35268;42.642;23.308;2023-02-16T06:03:03;64.07;;;28.65;;
49392;SDS011;35268;42.642;23.308;2023-02-16T06:05:29;67.82;;;29.90;;
49392;SDS011;35268;42.642;23.308;2023-02-16T06:07:54;67.32;;;30.55;;
49392;SDS011;35268;42.642;23.308;2023-02-16T06:10:19;59.35;;;28.10;;
49392;SDS011;35268;42.642;23.308;2023-02-16T06:12:45;64.40;;;30.80;;
49392;SDS011;35268;42.642;23.308;2023-02-16T06:15:10;68.20;;;30.08;;
49392;SDS011;35268;42.642;23.308;2023-02-16T06:17:36;59.83;;;27.35;;
49392;SDS011;35268;42.642;23.308;2023-02-16T06:20:01;66.53;;;29.15;;
49392;SDS011;35268;42.642;23.308;2023-02-16T06:22:28;54.88;;;25.08;;
49392;SDS011;35268;42.642;23.308;2023-02-16T06:24:53;57.10;;;27.45;;
49392;SDS011;35268;42.642;23.308;2023-02-16T06:27:18;72.70;;;34.00;;
49392;SDS011;35268;42.642;23.308;2023-02-16T06:29:44;70.45;;;33.10;;
49392;SDS011;35268;42.642;23.308;2023-02-16T06:32:09;73.10;;;32.35;;
49392;SDS011;35268;42.642;23.308;2023-02-16T06:34:35;76.07;;;35.45;;
49392;SDS011;35268;42.642;23.308;2023-02-16T06:37:00;82.65;;;35.25;;
49392;SDS011;35268;42.642;23.308;2023-02-16T06:39:26;86.03;;;35.92;;
49392;SDS011;35268;42.642;23.308;2023-02-16T06:41:51;71.93;;;32.70;;
49392;SDS011;35268;42.642;23.308;2023-02-16T06:44:17;77.97;;;36.63;;
49392;SDS011;35268;42.642;23.308;2023-02-16T06:46:43;75.05;;;35.58;;
49392;SDS011;35268;42.642;23.308;2023-02-16T06:49:11;81.80;;;36.70;;
49392;SDS011;35268;42.642;23.308;2023-02-16T06:51:38;73.53;;;34.95;;
49392;SDS011;35268;42.642;23.308;2023-02-16T06:54:03;67.07;;;30.50;;
49392;SDS011;35268;42.642;23.308;2023-02-16T06:56:29;63.47;;;30.75;;
49392;SDS011;35268;42.642;23.308;2023-02-16T06:58:54;78.18;;;34.72;;
49392;SDS011;35268;42.642;23.308;2023-02-16T07:01:20;83.95;;;37.10;;
49392;SDS011;35268;42.642;23.308;2023-02-16T07:03:50;79.35;;;37.08;;
49392;SDS011;35268;42.642;23.308;2023-02-16T07:06:16;74.07;;;34.55;;
49392;SDS011;35268;42.642;23.308;2023-02-16T07:08:42;83.68;;;35.97;;
49392;SDS011;35268;42.642;23.308;2023-02-16T07:11:07;71.38;;;34.33;;
49392;SDS011;35268;42.642;23.308;2023-02-16T07:13:33;71.13;;;32.88;;
49392;SDS011;35268;42.642;23.308;2023-02-16T07:16:00;80.10;;;34.67;;
49392;SDS011;35268;42.642;23.308;2023-02-16T07:18:29;82.75;;;36.97;;
49392;SDS011;35268;42.642;23.308;2023-02-16T07:20:55;76.80;;;35.33;;
49392;SDS011;35268;42.642;23.308;2023-02-16T07:23:21;68.45;;;32.53;;
49392;SDS011;35268;42.642;23.308;2023-02-16T07:25:46;75.57;;;35.35;;
49392;SDS011;35268;42.642;23.308;2023-02-16T07:28:12;81.78;;;36.55;;
49392;SDS011;35268;42.642;23.308;2023-02-16T07:30:37;80.40;;;36.85;;
49392;SDS011;35268;42.642;23.308;2023-02-16T07:33:03;76.72;;;35.22;;
49392;SDS011;35268;42.642;23.308;2023-02-16T07:35:30;70.35;;;34.10;;
49392;SDS011;35268;42.642;23.308;2023-02-16T07:37:56;71.20;;;33.80;;
49392;SDS011;35268;42.642;23.308;2023-02-16T07:40:21;77.40;;;35.15;;
49392;SDS011;35268;42.642;23.308;2023-02-16T07:42:47;66.60;;;33.25;;
49392;SDS011;35268;42.642;23.308;2023-02-16T07:45:12;69.95;;;32.10;;
49392;SDS011;35268;42.642;23.308;2023-02-16T07:47:38;77.65;;;35.00;;
49392;SDS011;35268;42.642;23.308;2023-02-16T07:50:03;66.57;;;32.80;;
49392;SDS011;35268;42.642;23.308;2023-02-16T07:52:29;70.25;;;33.38;;
49392;SDS011;35268;42.642;23.308;2023-02-16T07:54:57;71.55;;;33.97;;
49392;SDS011;35268;42.642;23.308;2023-02-16T07:57:23;78.75;;;34.45;;
49392;SDS011;35268;42.642;23.308;2023-02-16T07:59:50;84.55;;;35.20;;
49392;SDS011;35268;42.642;23.308;2023-02-16T08:02:16;75.65;;;35.20;;
49392;SDS011;35268;42.642;23.308;2023-02-16T08:04:43;81.90;;;38.40;;
49392;SDS011;35268;42.642;23.308;2023-02-16T08:07:13;81.50;;;38.53;;
49392;SDS011;35268;42.642;23.308;2023-02-16T08:09:39;94.70;;;40.58;;
49392;SDS011;35268;42.642;23.308;2023-02-16T08:12:09;95.50;;;42.78;;
49392;SDS011;35268;42.642;23.308;2023-02-16T08:14:35;100.97;;;43.85;;
49392;SDS011;35268;42.642;23.308;2023-02-16T08:17:01;96.63;;;43.60;;
49392;SDS011;35268;42.642;23.308;2023-02-16T08:19:27;98.40;;;45.03;;
49392;SDS011;35268;42.642;23.308;2023-02-16T08:21:53;89.63;;;44.13;;
49392;SDS011;35268;42.642;23.308;2023-02-16T08:24:19;86.20;;;42.53;;
49392;SDS011;35268;42.642;23.308;2023-02-16T08:26:45;88.78;;;43.75;;
49392;SDS011;35268;42.642;23.308;2023-02-16T08:29:14;89.75;;;42.42;;
49392;SDS011;35268;42.642;23.308;2023-02-16T08:31:42;82.70;;;40.40;;
49392;SDS011;35268;42.642;23.308;2023-02-16T08:34:10;87.65;;;39.17;;
49392;SDS011;35268;42.642;23.308;2023-02-16T08:36:37;75.70;;;36.28;;
49392;SDS011;35268;42.642;23.308;2023-02-16T08:39:11;69.88;;;34.33;;
49392;SDS011;35268;42.642;23.308;2023-02-16T08:41:41;68.93;;;34.58;;
49392;SDS011;35268;42.642;23.308;2023-02-16T08:44:08;71.00;;;35.92;;
49392;SDS011;35268;42.642;23.308;2023-02-16T08:46:34;83.35;;;36.72;;
49392;SDS011;35268;42.642;23.308;2023-02-16T08:49:04;69.38;;;34.47;;
49392;SDS011;35268;42.642;23.308;2023-02-16T08:51:31;71.50;;;31.65;;
49392;SDS011;35268;42.642;23.308;2023-02-16T08:53:59;71.90;;;31.95;;
49392;SDS011;35268;42.642;23.308;2023-02-16T08:56:25;58.15;;;28.38;;
49392;SDS011;35268;42.642;23.308;2023-02-16T08:58:51;64.32;;;27.58;;
49392;SDS011;35268;42.642;23.308;2023-02-16T09:01:17;67.28;;;30.95;;
49392;SDS011;35268;42.642;23.308;2023-02-16T09:03:43;65.40;;;31.90;;
49392;SDS011;35268;42.642;23.308;2023-02-16T09:06:10;74.25;;;34.90;;
49392;SDS011;35268;42.642;23.308;2023-02-16T09:08:38;84.00;;;39.45;;
49392;SDS011;35268;42.642;23.308;2023-02-16T09:11:05;69.60;;;34.92;;
49392;SDS011;35268;42.642;23.308;2023-02-16T09:13:33;81.15;;;34.33;;
49392;SDS011;35268;42.642;23.308;2023-02-16T09:16:03;70.68;;;33.72;;
49392;SDS011;35268;42.642;23.308;2023-02-16T09:18:30;77.38;;;35.55;;
49392;SDS011;35268;42.642;23.308;2023-02-16T09:20:57;74.07;;;34.92;;
49392;SDS011;35268;42.642;23.308;2023-02-16T09:23:26;81.32;;;36.55;;
49392;SDS011;35268;42.642;23.308;2023-02-16T09:25:52;75.40;;;35.55;;
49392;SDS011;35268;42.642;23.308;2023-02-16T09:28:18;80.18;;;35.75;;
49392;SDS011;35268;42.642;23.308;2023-02-16T09:30:44;76.25;;;35.03;;
49392;SDS011;35268;42.642;23.308;2023-02-16T09:33:10;65.82;;;33.00;;
49392;SDS011;35268;42.642;23.308;2023-02-16T09:35:37;71.43;;;33.47;;
49392;SDS011;35268;42.642;23.308;2023-02-16T09:38:03;71.07;;;32.60;;
49392;SDS011;35268;42.642;23.308;2023-02-16T09:40:29;69.07;;;33.88;;
49392;SDS011;35268;42.642;23.308;2023-02-16T09:45:29;65.15;;;32.72;;
49392;SDS011;35268;42.642;23.308;2023-02-16T09:47:59;65.40;;;31.23;;
49392;SDS011;35268;42.642;23.308;2023-02-16T09:50:26;61.10;;;32.22;;
49392;SDS011;35268;42.642;23.308;2023-02-16T09:52:55;64.30;;;31.98;;
49392;SDS011;35268;42.642;23.308;2023-02-16T09:55:25;63.40;;;31.13;;
49392;SDS011;35268;42.642;23.308;2023-02-16T09:58:19;64.22;;;32.00;;
49392;SDS011;35268;42.642;23.308;2023-02-16T10:00:50;62.60;;;30.35;;
49392;SDS011;35268;42.642;23.308;2023-02-16T10:08:49;67.90;;;31.10;;
49392;SDS011;35268;42.642;23.308;2023-02-16T10:11:29;71.20;;;33.55;;
49392;SDS011;35268;42.642;23.308;2023-02-16T10:14:21;66.68;;;32.28;;
49392;SDS011;35268;42.642;23.308;2023-02-16T10:19:27;70.90;;;32.83;;
49392;SDS011;35268;42.642;23.308;2023-02-16T10:22:00;65.35;;;32.83;;
49392;SDS011;35268;42.642;23.308;2023-02-16T10:24:30;64.20;;;33.58;;
49392;SDS011;35268;42.642;23.308;2023-02-16T10:27:06;76.00;;;31.85;;
49392;SDS011;35268;42.642;23.308;2023-02-16T10:29:38;66.05;;;31.85;;
49392;SDS011;35268;42.642;23.308;2023-02-16T10:43:04;87.20;;;34.30;;
49392;SDS011;35268;42.642;23.308;2023-02-16T10:48:08;59.53;;;32.13;;
49392;SDS011;35268;42.642;23.308;2023-02-16T10:50:38;66.28;;;32.40;;
49392;SDS011;35268;42.642;23.308;2023-02-16T10:53:14;61.88;;;32.60;;
49392;SDS011;35268;42.642;23.308;2023-02-16T10:55:43;63.97;;;32.33;;
49392;SDS011;35268;42.642;23.308;2023-02-16T10:58:14;65.75;;;32.28;;
49392;SDS011;35268;42.642;23.308;2023-02-16T11:00:49;70.93;;;32.85;;
49392;SDS011;35268;42.642;23.308;2023-02-16T11:03:22;67.15;;;32.90;;
49392;SDS011;35268;42.642;23.308;2023-02-16T11:05:49;66.97;;;32.42;;
49392;SDS011;35268;42.642;23.308;2023-02-16T11:08:15;64.55;;;30.50;;
49392;SDS011;35268;42.642;23.308;2023-02-16T11:13:09;66.15;;;31.00;;
49392;SDS011;35268;42.642;23.308;2023-02-16T11:15:53;67.75;;;31.63;;
49392;SDS011;35268;42.642;23.308;2023-02-16T11:18:27;70.03;;;32.92;;
49392;SDS011;35268;42.642;23.308;2023-02-16T11:20:57;70.35;;;31.65;;
49392;SDS011;35268;42.642;23.308;2023-02-16T11:26:05;72.60;;;31.02;;
49392;SDS011;35268;42.642;23.308;2023-02-16T11:31:09;68.28;;;31.50;;
49392;SDS011;35268;42.642;23.308;2023-02-16T11:33:42;65.10;;;32.53;;
49392;SDS011;35268;42.642;23.308;2023-02-16T11:36:20;60.95;;;29.88;;
49392;SDS011;35268;42.642;23.308;2023-02-16T11:41:42;68.40;;;30.95;;
49392;SDS011;35268;42.642;23.308;2023-02-16T11:44:19;69.07;;;31.25;;
49392;SDS011;35268;42.642;23.308;2023-02-16T11:46:59;56.00;;;28.98;;
49392;SDS011;35268;42.642;23.308;2023-02-16T11:49:33;65.32;;;30.00;;
49392;SDS011;35268;42.642;23.308;2023-02-16T11:54:57;59.20;;;30.40;;
49392;SDS011;35268;42.642;23.308;2023-02-16T11:59:52;69.95;;;30.40;;
49392;SDS011;35268;42.642;23.308;2023-02-16T12:13:05;61.58;;;30.52;;
49392;SDS011;35268;42.642;23.308;2023-02-16T12:23:40;62.25;;;31.10;;
49392;SDS011;35268;42.642;23.308;2023-02-16T12:26:24;58.33;;;29.45;;
49392;SDS011;35268;42.642;23.308;2023-02-16T12:40:10;57.08;;;28.95;;
49392;SDS011;35268;42.642;23.308;2023-02-16T12:45:24;64.20;;;29.48;;
49392;SDS011;35268;42.642;23.308;2023-02-16T12:48:40;56.30;;;28.40;;
49392;SDS011;35268;42.642;23.308;2023-02-16T12:51:06;59.78;;;28.58;;
49392;SDS011;35268;42.642;23.308;2023-02-16T12:53:44;58.28;;;27.55;;
49392;SDS011;35268;42.642;23.308;2023-02-16T12:56:16;57.25;;;28.73;;
49392;SDS011;35268;42.642;23.308;2023-02-16T12:58:47;48.50;;;26.80;;
49392;SDS011;35268;42.642;23.308;2023-02-16T13:01:27;66.40;;;27.63;;
49392;SDS011;35268;42.642;23.308;2023-02-16T13:03:58;57.15;;;27.77;;
49392;SDS011;35268;42.642;23.308;2023-02-16T13:14:42;55.78;;;28.00;;
49392;SDS011;35268;42.642;23.308;2023-02-16T13:17:15;57.53;;;28.73;;
49392;SDS011;35268;42.642;23.308;2023-02-16T13:19:45;57.00;;;26.50;;
49392;SDS011;35268;42.642;23.308;2023-02-16T13:22:30;56.42;;;26.95;;
49392;SDS011;35268;42.642;23.308;2023-02-16T13:28:01;54.60;;;26.65;;
49392;SDS011;35268;42.642;23.308;2023-02-16T13:39:01;48.58;;;26.13;;
49392;SDS011;35268;42.642;23.308;2023-02-16T13:41:33;58.80;;;25.83;;
49392;SDS011;35268;42.642;23.308;2023-02-16T13:44:17;49.50;;;26.50;;
49392;SDS011;35268;42.642;23.308;2023-02-16T13:46:46;59.92;;;26.83;;
49392;SDS011;35268;42.642;23.308;2023-02-16T13:49:27;49.05;;;26.20;;
49392;SDS011;35268;42.642;23.308;2023-02-16T13:51:53;74.05;;;26.63;;
49392;SDS011;35268;42.642;23.308;2023-02-16T13:54:32;53.13;;;26.00;;
49392;SDS011;35268;42.642;23.308;2023-02-16T13:57:00;59.67;;;27.88;;
49392;SDS011;35268;42.642;23.308;2023-02-16T14:02:03;56.38;;;26.88;;
49392;SDS011;35268;42.642;23.308;2023-02-16T14:12:16;66.13;;;25.70;;
49392;SDS011;35268;42.642;23.308;2023-02-16T14:20:30;45.88;;;21.80;;
49392;SDS011;35268;42.642;23.308;2023-02-16T14:30:30;47.70;;;22.67;;
49392;SDS011;35268;42.642;23.308;2023-02-16T14:33:19;38.95;;;20.25;;
49392;SDS011;35268;42.642;23.308;2023-02-16T14:38:41;48.80;;;22.83;;
49392;SDS011;35268;42.642;23.308;2023-02-16T14:43:47;99.78;;;44.67;;
49392;SDS011;35268;42.642;23.308;2023-02-16T15:02:57;83.65;;;30.75;;
49392;SDS011;35268;42.642;23.308;2023-02-16T15:05:33;78.70;;;27.55;;
49392;SDS011;35268;42.642;23.308;2023-02-16T15:10:41;74.28;;;28.08;;
49392;SDS011;35268;42.642;23.308;2023-02-16T15:13:17;76.03;;;29.83;;
49392;SDS011;35268;42.642;23.308;2023-02-16T15:15:45;68.55;;;30.20;;
49392;SDS011;35268;42.642;23.308;2023-02-16T15:18:14;74.03;;;32.97;;
49392;SDS011;35268;42.642;23.308;2023-02-16T15:20:44;98.18;;;35.28;;
49392;SDS011;35268;42.642;23.308;2023-02-16T15:23:31;102.13;;;33.75;;
49392;SDS011;35268;42.642;23.308;2023-02-16T15:26:00;102.35;;;33.67;;
49392;SDS011;35268;42.642;23.308;2023-02-16T15:28:33;78.50;;;32.22;;
49392;SDS011;35268;42.642;23.308;2023-02-16T15:31:04;79.30;;;32.92;;
49392;SDS011;35268;42.642;23.308;2023-02-16T15:33:33;81.63;;;37.35;;
49392;SDS011;35268;42.642;23.308;2023-02-16T15:36:11;73.55;;;33.97;;
49392;SDS011;35268;42.642;23.308;2023-02-16T15:41:27;86.88;;;35.35;;
49392;SDS011;35268;42.642;23.308;2023-02-16T15:43:54;91.32;;;34.95;;
49392;SDS011;35268;42.642;23.308;2023-02-16T15:48:56;84.03;;;36.78;;
49392;SDS011;35268;42.642;23.308;2023-02-16T15:51:25;83.32;;;34.38;;
49392;SDS011;35268;42.642;23.308;2023-02-16T15:56:29;84.57;;;37.08;;
49392;SDS011;35268;42.642;23.308;2023-02-16T16:01:40;85.25;;;38.78;;
49392;SDS011;35268;42.642;23.308;2023-02-16T16:04:18;82.75;;;38.78;;
49392;SDS011;35268;42.642;23.308;2023-02-16T16:06:45;109.28;;;40.33;;
49392;SDS011;35268;42.642;23.308;2023-02-16T16:09:16;98.22;;;39.70;;
49392;SDS011;35268;42.642;23.308;2023-02-16T16:11:46;87.78;;;40.25;;
49392;SDS011;35268;42.642;23.308;2023-02-16T16:14:13;97.03;;;42.65;;
49392;SDS011;35268;42.642;23.308;2023-02-16T16:16:39;95.50;;;40.20;;
49392;SDS011;35268;42.642;23.308;2023-02-16T16:19:06;99.75;;;40.53;;
49392;SDS011;35268;42.642;23.308;2023-02-16T16:21:45;94.03;;;38.58;;
49392;SDS011;35268;42.642;23.308;2023-02-16T16:24:26;88.00;;;37.75;;
49392;SDS011;35268;42.642;23.308;2023-02-16T16:27:00;92.32;;;39.30;;
49392;SDS011;35268;42.642;23.308;2023-02-16T16:29:41;88.57;;;35.63;;
49392;SDS011;35268;42.642;23.308;2023-02-16T16:32:24;76.90;;;35.22;;
49392;SDS011;35268;42.642;23.308;2023-02-16T16:37:29;59.47;;;29.77;;
49392;SDS011;35268;42.642;23.308;2023-02-16T16:40:05;68.82;;;32.33;;
49392;SDS011;35268;42.642;23.308;2023-02-16T16:43:16;73.28;;;35.00;;
49392;SDS011;35268;42.642;23.308;2023-02-16T16:45:41;65.53;;;32.40;;
49392;SDS011;35268;42.642;23.308;2023-02-16T16:50:47;67.10;;;28.55;;
49392;SDS011;35268;42.642;23.308;2023-02-16T16:55:53;85.65;;;32.95;;
49392;SDS011;35268;42.642;23.308;2023-02-16T16:58:19;80.55;;;32.33;;
49392;SDS011;35268;42.642;23.308;2023-02-16T17:00:44;58.55;;;24.42;;
49392;SDS011;35268;42.642;23.308;2023-02-16T17:03:16;66.10;;;23.60;;
49392;SDS011;35268;42.642;23.308;2023-02-16T17:08:09;45.35;;;21.00;;
49392;SDS011;35268;42.642;23.308;2023-02-16T17:10:36;44.75;;;19.60;;
49392;SDS011;35268;42.642;23.308;2023-02-16T17:13:04;61.58;;;26.23;;
49392;SDS011;35268;42.642;23.308;2023-02-16T17:15:38;54.70;;;24.80;;
49392;SDS011;35268;42.642;23.308;2023-02-16T17:18:12;45.92;;;21.60;;
49392;SDS011;35268;42.642;23.308;2023-02-16T17:20:40;68.25;;;29.95;;
49392;SDS011;35268;42.642;23.308;2023-02-16T17:23:06;49.53;;;23.08;;
49392;SDS011;35268;42.642;23.308;2023-02-16T17:25:38;54.00;;;25.20;;
49392;SDS011;35268;42.642;23.308;2023-02-16T17:28:04;55.67;;;22.98;;
49392;SDS011;35268;42.642;23.308;2023-02-16T17:30:30;48.13;;;21.45;;
49392;SDS011;35268;42.642;23.308;2023-02-16T17:32:56;50.45;;;19.90;;
49392;SDS011;35268;42.642;23.308;2023-02-16T17:35:21;38.00;;;18.17;;
49392;SDS011;35268;42.642;23.308;2023-02-16T17:37:47;35.42;;;15.93;;
49392;SDS011;35268;42.642;23.308;2023-02-16T17:40:13;38.67;;;15.77;;
49392;SDS011;35268;42.642;23.308;2023-02-16T17:42:41;43.90;;;19.15;;
49392;SDS011;35268;42.642;23.308;2023-02-16T17:45:08;45.45;;;18.13;;
49392;SDS011;35268;42.642;23.308;2023-02-16T17:47:33;41.80;;;15.88;;